sensor_id;sensor_type;location;lat;lon;timestamp;P1;durP1;ratioP1;P2;durP2;ratioP2
35376;SDS011;21480;51.642;4.834;2022-10-13T00:01:25;128.33;;;117.30;;
35376;SDS011;21480;51.642;4.834;2022-10-13T00:03:51;128.67;;;117.70;;
35376;SDS011;21480;51.642;4.834;2022-10-13T00:06:19;129.77;;;118.73;;
35376;SDS011;21480;51.642;4.834;2022-10-13T00:08:47;127.53;;;116.80;;
35376;SDS011;21480;51.642;4.834;2022-10-13T00:11:14;130.67;;;119.67;;
35376;SDS011;21480;51.642;4.834;2022-10-13T00:13:48;125.50;;;115.03;;
35376;SDS011;21480;51.642;4.834;2022-10-13T00:16:15;127.23;;;116.63;;
35376;SDS011;21480;51.642;4.834;2022-10-13T00:18:42;126.43;;;115.90;;
35376;SDS011;21480;51.642;4.834;2022-10-13T00:21:09;125.47;;;115.13;;
35376;SDS011;21480;51.642;4.834;2022-10-13T00:23:37;126.80;;;115.90;;
35376;SDS011;21480;51.642;4.834;2022-10-13T00:26:05;127.73;;;116.53;;
35376;SDS011;21480;51.642;4.834;2022-10-13T00:28:32;129.33;;;117.73;;
35376;SDS011;21480;51.642;4.834;2022-10-13T00:30:58;126.33;;;115.90;;
35376;SDS011;21480;51.642;4.834;2022-10-13T00:33:24;129.50;;;118.13;;
35376;SDS011;21480;51.642;4.834;2022-10-13T00:35:50;125.83;;;115.00;;
35376;SDS011;21480;51.642;4.834;2022-10-13T00:38:17;127.33;;;117.03;;
35376;SDS011;21480;51.642;4.834;2022-10-13T00:43:18;127.73;;;117.00;;
35376;SDS011;21480;51.642;4.834;2022-10-13T00:46:10;127.80;;;116.93;;
35376;SDS011;21480;51.642;4.834;2022-10-13T00:48:36;127.80;;;116.73;;
35376;SDS011;21480;51.642;4.834;2022-10-13T00:51:02;127.23;;;116.17;;
35376;SDS011;21480;51.642;4.834;2022-10-13T00:53:30;128.50;;;117.93;;
35376;SDS011;21480;51.642;4.834;2022-10-13T00:56:00;129.03;;;117.77;;
35376;SDS011;21480;51.642;4.834;2022-10-13T00:58:26;127.00;;;116.40;;
35376;SDS011;21480;51.642;4.834;2022-10-13T01:00:57;128.47;;;117.40;;
35376;SDS011;21480;51.642;4.834;2022-10-13T01:03:23;128.83;;;117.67;;
35376;SDS011;21480;51.642;4.834;2022-10-13T01:05:51;128.13;;;117.07;;
35376;SDS011;21480;51.642;4.834;2022-10-13T01:08:20;130.03;;;119.13;;
35376;SDS011;21480;51.642;4.834;2022-10-13T01:24:52;127.37;;;116.83;;
35376;SDS011;21480;51.642;4.834;2022-10-13T01:32:42;127.90;;;116.43;;
35376;SDS011;21480;51.642;4.834;2022-10-13T01:35:38;124.10;;;113.80;;
35376;SDS011;21480;51.642;4.834;2022-10-13T01:43:51;125.97;;;115.57;;
35376;SDS011;21480;51.642;4.834;2022-10-13T01:46:33;126.97;;;116.57;;
35376;SDS011;21480;51.642;4.834;2022-10-13T01:49:03;126.47;;;115.83;;
35376;SDS011;21480;51.642;4.834;2022-10-13T01:51:31;126.30;;;115.87;;
35376;SDS011;21480;51.642;4.834;2022-10-13T01:53:59;126.43;;;115.77;;
35376;SDS011;21480;51.642;4.834;2022-10-13T01:56:25;126.80;;;116.13;;
35376;SDS011;21480;51.642;4.834;2022-10-13T01:58:50;126.97;;;116.03;;
35376;SDS011;21480;51.642;4.834;2022-10-13T02:07:27;128.00;;;117.07;;
35376;SDS011;21480;51.642;4.834;2022-10-13T02:10:16;125.40;;;115.00;;
35376;SDS011;21480;51.642;4.834;2022-10-13T02:12:58;127.87;;;116.57;;
35376;SDS011;21480;51.642;4.834;2022-10-13T02:15:33;128.43;;;117.37;;
35376;SDS011;21480;51.642;4.834;2022-10-13T02:18:12;126.10;;;115.10;;
35376;SDS011;21480;51.642;4.834;2022-10-13T02:20:40;127.13;;;116.17;;
35376;SDS011;21480;51.642;4.834;2022-10-13T02:23:08;126.47;;;115.83;;
35376;SDS011;21480;51.642;4.834;2022-10-13T02:25:41;126.10;;;115.70;;
35376;SDS011;21480;51.642;4.834;2022-10-13T02:28:08;127.33;;;116.40;;
35376;SDS011;21480;51.642;4.834;2022-10-13T02:30:37;126.93;;;116.47;;
35376;SDS011;21480;51.642;4.834;2022-10-13T02:33:04;127.33;;;116.43;;
35376;SDS011;21480;51.642;4.834;2022-10-13T02:35:30;126.03;;;115.77;;
35376;SDS011;21480;51.642;4.834;2022-10-13T02:37:57;126.37;;;115.97;;
35376;SDS011;21480;51.642;4.834;2022-10-13T02:40:22;126.20;;;115.47;;
35376;SDS011;21480;51.642;4.834;2022-10-13T02:42:48;125.13;;;115.30;;
35376;SDS011;21480;51.642;4.834;2022-10-13T02:45:14;125.00;;;114.93;;
35376;SDS011;21480;51.642;4.834;2022-10-13T02:47:40;129.03;;;118.10;;
35376;SDS011;21480;51.642;4.834;2022-10-13T02:50:06;127.30;;;116.70;;
35376;SDS011;21480;51.642;4.834;2022-10-13T02:52:32;127.33;;;116.33;;
35376;SDS011;21480;51.642;4.834;2022-10-13T02:54:57;127.30;;;116.37;;
35376;SDS011;21480;51.642;4.834;2022-10-13T02:57:23;126.93;;;116.00;;
35376;SDS011;21480;51.642;4.834;2022-10-13T02:59:49;127.07;;;116.57;;
35376;SDS011;21480;51.642;4.834;2022-10-13T03:02:15;126.60;;;116.17;;
35376;SDS011;21480;51.642;4.834;2022-10-13T03:04:41;128.03;;;117.43;;
35376;SDS011;21480;51.642;4.834;2022-10-13T03:07:07;126.20;;;115.30;;
35376;SDS011;21480;51.642;4.834;2022-10-13T03:09:32;127.80;;;117.33;;
35376;SDS011;21480;51.642;4.834;2022-10-13T03:11:58;128.33;;;117.00;;
35376;SDS011;21480;51.642;4.834;2022-10-13T03:14:26;126.97;;;115.83;;
35376;SDS011;21480;51.642;4.834;2022-10-13T03:16:52;127.60;;;116.77;;
35376;SDS011;21480;51.642;4.834;2022-10-13T03:19:18;130.13;;;118.47;;
35376;SDS011;21480;51.642;4.834;2022-10-13T03:21:44;124.73;;;114.73;;
35376;SDS011;21480;51.642;4.834;2022-10-13T03:24:10;127.77;;;116.67;;
35376;SDS011;21480;51.642;4.834;2022-10-13T03:26:36;126.47;;;115.87;;
35376;SDS011;21480;51.642;4.834;2022-10-13T03:29:02;127.83;;;117.27;;
35376;SDS011;21480;51.642;4.834;2022-10-13T03:31:27;126.83;;;115.60;;
35376;SDS011;21480;51.642;4.834;2022-10-13T03:33:53;126.47;;;115.97;;
35376;SDS011;21480;51.642;4.834;2022-10-13T03:36:19;126.70;;;115.90;;
35376;SDS011;21480;51.642;4.834;2022-10-13T03:38:45;129.33;;;118.07;;
35376;SDS011;21480;51.642;4.834;2022-10-13T03:41:14;128.53;;;117.53;;
35376;SDS011;21480;51.642;4.834;2022-10-13T03:43:42;128.53;;;117.67;;
35376;SDS011;21480;51.642;4.834;2022-10-13T03:46:09;126.60;;;116.37;;
35376;SDS011;21480;51.642;4.834;2022-10-13T03:48:37;127.97;;;117.23;;
35376;SDS011;21480;51.642;4.834;2022-10-13T03:51:04;128.13;;;116.73;;
35376;SDS011;21480;51.642;4.834;2022-10-13T03:53:31;127.87;;;116.43;;
35376;SDS011;21480;51.642;4.834;2022-10-13T03:55:58;127.23;;;116.33;;
35376;SDS011;21480;51.642;4.834;2022-10-13T03:58:23;124.40;;;114.00;;
35376;SDS011;21480;51.642;4.834;2022-10-13T04:00:52;126.37;;;115.47;;
35376;SDS011;21480;51.642;4.834;2022-10-13T04:03:18;127.80;;;117.00;;
35376;SDS011;21480;51.642;4.834;2022-10-13T04:05:44;127.40;;;117.07;;
35376;SDS011;21480;51.642;4.834;2022-10-13T04:08:10;126.47;;;116.03;;
35376;SDS011;21480;51.642;4.834;2022-10-13T04:10:36;127.53;;;117.07;;
35376;SDS011;21480;51.642;4.834;2022-10-13T04:13:03;127.17;;;116.33;;
35376;SDS011;21480;51.642;4.834;2022-10-13T04:15:29;124.93;;;114.47;;
35376;SDS011;21480;51.642;4.834;2022-10-13T04:18:02;129.67;;;118.07;;
35376;SDS011;21480;51.642;4.834;2022-10-13T04:20:29;127.43;;;115.83;;
35376;SDS011;21480;51.642;4.834;2022-10-13T04:22:54;127.10;;;116.37;;
35376;SDS011;21480;51.642;4.834;2022-10-13T04:25:20;127.07;;;116.57;;
35376;SDS011;21480;51.642;4.834;2022-10-13T04:27:46;129.73;;;118.63;;
35376;SDS011;21480;51.642;4.834;2022-10-13T04:30:12;127.63;;;117.07;;
35376;SDS011;21480;51.642;4.834;2022-10-13T04:32:38;130.83;;;118.97;;
35376;SDS011;21480;51.642;4.834;2022-10-13T04:35:04;127.30;;;116.13;;
35376;SDS011;21480;51.642;4.834;2022-10-13T04:37:30;129.40;;;118.07;;
35376;SDS011;21480;51.642;4.834;2022-10-13T04:39:56;127.40;;;116.50;;
35376;SDS011;21480;51.642;4.834;2022-10-13T04:42:22;126.30;;;115.53;;
35376;SDS011;21480;51.642;4.834;2022-10-13T04:44:47;127.23;;;116.83;;
35376;SDS011;21480;51.642;4.834;2022-10-13T04:47:13;127.70;;;116.97;;
35376;SDS011;21480;51.642;4.834;2022-10-13T04:49:39;129.87;;;118.30;;
35376;SDS011;21480;51.642;4.834;2022-10-13T04:52:04;127.30;;;116.63;;
35376;SDS011;21480;51.642;4.834;2022-10-13T04:54:30;127.33;;;116.63;;
35376;SDS011;21480;51.642;4.834;2022-10-13T04:56:56;126.77;;;116.43;;
35376;SDS011;21480;51.642;4.834;2022-10-13T04:59:23;127.63;;;117.13;;
35376;SDS011;21480;51.642;4.834;2022-10-13T05:01:49;129.60;;;118.17;;
35376;SDS011;21480;51.642;4.834;2022-10-13T05:04:14;125.73;;;115.40;;
35376;SDS011;21480;51.642;4.834;2022-10-13T05:06:40;130.27;;;119.10;;
35376;SDS011;21480;51.642;4.834;2022-10-13T05:09:06;127.27;;;116.57;;
35376;SDS011;21480;51.642;4.834;2022-10-13T05:11:33;128.00;;;117.23;;
35376;SDS011;21480;51.642;4.834;2022-10-13T05:13:59;130.30;;;119.10;;
35376;SDS011;21480;51.642;4.834;2022-10-13T05:16:26;128.17;;;117.43;;
35376;SDS011;21480;51.642;4.834;2022-10-13T05:18:52;130.33;;;118.67;;
35376;SDS011;21480;51.642;4.834;2022-10-13T05:21:21;127.70;;;116.77;;
35376;SDS011;21480;51.642;4.834;2022-10-13T05:23:51;130.07;;;118.77;;
35376;SDS011;21480;51.642;4.834;2022-10-13T05:26:18;129.77;;;118.50;;
35376;SDS011;21480;51.642;4.834;2022-10-13T05:28:44;130.23;;;118.57;;
35376;SDS011;21480;51.642;4.834;2022-10-13T05:33:40;131.27;;;119.47;;
35376;SDS011;21480;51.642;4.834;2022-10-13T05:36:07;129.67;;;118.97;;
35376;SDS011;21480;51.642;4.834;2022-10-13T05:38:41;132.97;;;121.20;;
35376;SDS011;21480;51.642;4.834;2022-10-13T05:41:08;132.70;;;120.47;;
35376;SDS011;21480;51.642;4.834;2022-10-13T05:43:36;132.17;;;120.43;;
35376;SDS011;21480;51.642;4.834;2022-10-13T05:46:03;132.10;;;120.60;;
35376;SDS011;21480;51.642;4.834;2022-10-13T05:48:31;132.47;;;120.43;;
35376;SDS011;21480;51.642;4.834;2022-10-13T05:50:58;130.30;;;118.73;;
35376;SDS011;21480;51.642;4.834;2022-10-13T05:53:28;131.20;;;119.43;;
35376;SDS011;21480;51.642;4.834;2022-10-13T05:55:57;134.17;;;122.03;;
35376;SDS011;21480;51.642;4.834;2022-10-13T05:58:40;131.57;;;119.47;;
35376;SDS011;21480;51.642;4.834;2022-10-13T06:01:11;132.60;;;119.90;;
35376;SDS011;21480;51.642;4.834;2022-10-13T06:03:43;134.10;;;121.53;;
35376;SDS011;21480;51.642;4.834;2022-10-13T06:06:10;131.83;;;120.03;;
35376;SDS011;21480;51.642;4.834;2022-10-13T06:08:36;132.80;;;120.37;;
35376;SDS011;21480;51.642;4.834;2022-10-13T06:11:03;132.47;;;120.40;;
35376;SDS011;21480;51.642;4.834;2022-10-13T06:13:29;131.97;;;119.90;;
35376;SDS011;21480;51.642;4.834;2022-10-13T06:15:55;134.43;;;122.20;;
35376;SDS011;21480;51.642;4.834;2022-10-13T06:18:20;131.97;;;119.70;;
35376;SDS011;21480;51.642;4.834;2022-10-13T06:20:46;135.20;;;122.40;;
35376;SDS011;21480;51.642;4.834;2022-10-13T06:23:12;132.77;;;120.43;;
35376;SDS011;21480;51.642;4.834;2022-10-13T06:25:45;133.37;;;120.77;;
35376;SDS011;21480;51.642;4.834;2022-10-13T06:28:14;134.20;;;121.97;;
35376;SDS011;21480;51.642;4.834;2022-10-13T06:30:39;132.33;;;120.43;;
35376;SDS011;21480;51.642;4.834;2022-10-13T06:33:07;133.03;;;120.53;;
35376;SDS011;21480;51.642;4.834;2022-10-13T06:35:33;133.10;;;120.90;;
35376;SDS011;21480;51.642;4.834;2022-10-13T06:38:00;136.17;;;122.77;;
35376;SDS011;21480;51.642;4.834;2022-10-13T06:40:26;133.83;;;121.83;;
35376;SDS011;21480;51.642;4.834;2022-10-13T06:42:51;136.97;;;123.20;;
35376;SDS011;21480;51.642;4.834;2022-10-13T06:45:17;133.87;;;120.90;;
35376;SDS011;21480;51.642;4.834;2022-10-13T06:47:43;131.00;;;119.07;;
35376;SDS011;21480;51.642;4.834;2022-10-13T06:50:10;132.87;;;120.30;;
35376;SDS011;21480;51.642;4.834;2022-10-13T06:52:36;132.87;;;120.07;;
35376;SDS011;21480;51.642;4.834;2022-10-13T06:55:02;133.77;;;121.67;;
35376;SDS011;21480;51.642;4.834;2022-10-13T06:57:28;134.47;;;120.77;;
35376;SDS011;21480;51.642;4.834;2022-10-13T06:59:53;134.87;;;122.13;;
35376;SDS011;21480;51.642;4.834;2022-10-13T07:02:19;134.10;;;121.60;;
35376;SDS011;21480;51.642;4.834;2022-10-13T07:04:45;133.97;;;120.97;;
35376;SDS011;21480;51.642;4.834;2022-10-13T07:07:13;132.47;;;120.67;;
35376;SDS011;21480;51.642;4.834;2022-10-13T07:09:40;134.33;;;121.80;;
35376;SDS011;21480;51.642;4.834;2022-10-13T07:12:05;136.07;;;123.63;;
35376;SDS011;21480;51.642;4.834;2022-10-13T07:14:32;132.70;;;120.70;;
35376;SDS011;21480;51.642;4.834;2022-10-13T07:16:58;133.03;;;121.23;;
35376;SDS011;21480;51.642;4.834;2022-10-13T07:19:24;133.83;;;121.00;;
35376;SDS011;21480;51.642;4.834;2022-10-13T07:21:50;133.43;;;121.17;;
35376;SDS011;21480;51.642;4.834;2022-10-13T07:24:16;136.43;;;122.70;;
35376;SDS011;21480;51.642;4.834;2022-10-13T07:26:42;131.70;;;119.37;;
35376;SDS011;21480;51.642;4.834;2022-10-13T07:29:07;136.23;;;123.37;;
35376;SDS011;21480;51.642;4.834;2022-10-13T07:31:33;134.27;;;121.90;;
35376;SDS011;21480;51.642;4.834;2022-10-13T07:33:59;133.87;;;121.60;;
35376;SDS011;21480;51.642;4.834;2022-10-13T07:36:25;132.60;;;120.53;;
35376;SDS011;21480;51.642;4.834;2022-10-13T07:38:51;134.47;;;121.40;;
35376;SDS011;21480;51.642;4.834;2022-10-13T07:41:17;134.67;;;121.93;;
35376;SDS011;21480;51.642;4.834;2022-10-13T07:43:43;134.17;;;121.67;;
35376;SDS011;21480;51.642;4.834;2022-10-13T07:46:09;134.30;;;122.30;;
35376;SDS011;21480;51.642;4.834;2022-10-13T07:48:37;133.70;;;120.87;;
35376;SDS011;21480;51.642;4.834;2022-10-13T07:51:04;136.17;;;123.50;;
35376;SDS011;21480;51.642;4.834;2022-10-13T07:53:31;132.17;;;120.30;;
35376;SDS011;21480;51.642;4.834;2022-10-13T07:55:59;136.07;;;123.00;;
35376;SDS011;21480;51.642;4.834;2022-10-13T07:58:26;133.90;;;120.70;;
35376;SDS011;21480;51.642;4.834;2022-10-13T08:00:56;133.33;;;120.83;;
35376;SDS011;21480;51.642;4.834;2022-10-13T08:03:26;133.40;;;121.10;;
35376;SDS011;21480;51.642;4.834;2022-10-13T08:05:53;132.97;;;121.40;;
35376;SDS011;21480;51.642;4.834;2022-10-13T08:08:19;133.23;;;121.73;;
35376;SDS011;21480;51.642;4.834;2022-10-13T08:10:45;134.30;;;122.03;;
35376;SDS011;21480;51.642;4.834;2022-10-13T08:13:11;136.03;;;122.63;;
35376;SDS011;21480;51.642;4.834;2022-10-13T08:15:41;135.67;;;122.77;;
35376;SDS011;21480;51.642;4.834;2022-10-13T08:18:08;135.37;;;123.03;;
35376;SDS011;21480;51.642;4.834;2022-10-13T08:20:39;133.63;;;121.03;;
35376;SDS011;21480;51.642;4.834;2022-10-13T08:23:06;135.40;;;123.00;;
35376;SDS011;21480;51.642;4.834;2022-10-13T08:25:36;133.13;;;121.43;;
35376;SDS011;21480;51.642;4.834;2022-10-13T08:28:03;134.87;;;122.40;;
35376;SDS011;21480;51.642;4.834;2022-10-13T08:30:29;133.87;;;122.03;;
35376;SDS011;21480;51.642;4.834;2022-10-13T08:32:55;134.70;;;122.90;;
35376;SDS011;21480;51.642;4.834;2022-10-13T08:35:21;133.13;;;121.50;;
35376;SDS011;21480;51.642;4.834;2022-10-13T08:37:47;134.17;;;121.83;;
35376;SDS011;21480;51.642;4.834;2022-10-13T08:40:16;133.63;;;122.00;;
35376;SDS011;21480;51.642;4.834;2022-10-13T08:42:45;133.77;;;121.70;;
35376;SDS011;21480;51.642;4.834;2022-10-13T08:45:18;134.93;;;123.07;;
35376;SDS011;21480;51.642;4.834;2022-10-13T08:48:00;132.43;;;120.63;;
35376;SDS011;21480;51.642;4.834;2022-10-13T08:50:31;133.47;;;121.33;;
35376;SDS011;21480;51.642;4.834;2022-10-13T08:55:41;134.27;;;121.97;;
35376;SDS011;21480;51.642;4.834;2022-10-13T08:58:22;132.57;;;120.87;;
35376;SDS011;21480;51.642;4.834;2022-10-13T09:00:55;133.33;;;121.23;;
35376;SDS011;21480;51.642;4.834;2022-10-13T09:03:26;134.47;;;122.73;;
35376;SDS011;21480;51.642;4.834;2022-10-13T09:06:10;133.07;;;121.77;;
35376;SDS011;21480;51.642;4.834;2022-10-13T09:08:55;132.73;;;121.27;;
35376;SDS011;21480;51.642;4.834;2022-10-13T09:11:36;136.30;;;123.47;;
35376;SDS011;21480;51.642;4.834;2022-10-13T09:14:05;133.00;;;121.40;;
35376;SDS011;21480;51.642;4.834;2022-10-13T09:21:44;133.07;;;121.53;;
35376;SDS011;21480;51.642;4.834;2022-10-13T09:24:12;131.67;;;120.50;;
35376;SDS011;21480;51.642;4.834;2022-10-13T09:26:40;132.37;;;120.53;;
35376;SDS011;21480;51.642;4.834;2022-10-13T09:29:08;132.60;;;121.57;;
35376;SDS011;21480;51.642;4.834;2022-10-13T09:31:36;132.33;;;120.87;;
35376;SDS011;21480;51.642;4.834;2022-10-13T09:34:11;134.77;;;122.07;;
35376;SDS011;21480;51.642;4.834;2022-10-13T09:39:58;133.00;;;121.77;;
35376;SDS011;21480;51.642;4.834;2022-10-13T09:42:50;132.63;;;120.73;;
35376;SDS011;21480;51.642;4.834;2022-10-13T09:45:18;134.60;;;122.50;;
35376;SDS011;21480;51.642;4.834;2022-10-13T09:47:53;131.03;;;119.43;;
35376;SDS011;21480;51.642;4.834;2022-10-13T09:50:26;133.93;;;122.20;;
35376;SDS011;21480;51.642;4.834;2022-10-13T09:52:54;133.67;;;121.90;;
35376;SDS011;21480;51.642;4.834;2022-10-13T09:55:40;132.43;;;120.27;;
35376;SDS011;21480;51.642;4.834;2022-10-13T09:58:08;132.97;;;121.27;;
35376;SDS011;21480;51.642;4.834;2022-10-13T10:00:55;132.30;;;121.07;;
35376;SDS011;21480;51.642;4.834;2022-10-13T10:03:32;133.47;;;121.77;;
35376;SDS011;21480;51.642;4.834;2022-10-13T10:06:02;131.40;;;120.23;;
35376;SDS011;21480;51.642;4.834;2022-10-13T10:11:19;132.93;;;120.63;;
35376;SDS011;21480;51.642;4.834;2022-10-13T10:13:57;130.87;;;118.77;;
35376;SDS011;21480;51.642;4.834;2022-10-13T10:16:48;133.90;;;121.63;;
35376;SDS011;21480;51.642;4.834;2022-10-13T10:25:33;132.23;;;120.93;;
35376;SDS011;21480;51.642;4.834;2022-10-13T10:30:31;128.17;;;117.37;;
35376;SDS011;21480;51.642;4.834;2022-10-13T10:35:48;126.47;;;116.23;;
35376;SDS011;21480;51.642;4.834;2022-10-13T10:38:23;129.90;;;119.03;;
35376;SDS011;21480;51.642;4.834;2022-10-13T10:41:33;128.70;;;118.13;;
35376;SDS011;21480;51.642;4.834;2022-10-13T10:44:16;128.97;;;118.47;;
35376;SDS011;21480;51.642;4.834;2022-10-13T10:46:50;127.40;;;116.40;;
35376;SDS011;21480;51.642;4.834;2022-10-13T10:49:21;130.20;;;119.67;;
35376;SDS011;21480;51.642;4.834;2022-10-13T10:51:51;127.93;;;117.83;;
35376;SDS011;21480;51.642;4.834;2022-10-13T10:54:22;127.87;;;117.23;;
35376;SDS011;21480;51.642;4.834;2022-10-13T10:57:04;126.43;;;116.30;;
35376;SDS011;21480;51.642;4.834;2022-10-13T11:02:22;129.23;;;118.60;;
35376;SDS011;21480;51.642;4.834;2022-10-13T11:05:09;128.80;;;118.20;;
35376;SDS011;21480;51.642;4.834;2022-10-13T11:21:09;128.43;;;117.73;;
35376;SDS011;21480;51.642;4.834;2022-10-13T11:23:35;129.80;;;118.60;;
35376;SDS011;21480;51.642;4.834;2022-10-13T11:27:09;129.67;;;118.93;;
35376;SDS011;21480;51.642;4.834;2022-10-13T11:29:15;129.53;;;118.80;;
35376;SDS011;21480;51.642;4.834;2022-10-13T11:31:48;129.90;;;118.90;;
35376;SDS011;21480;51.642;4.834;2022-10-13T11:34:25;130.23;;;119.53;;
35376;SDS011;21480;51.642;4.834;2022-10-13T11:36:54;130.33;;;119.67;;
35376;SDS011;21480;51.642;4.834;2022-10-13T11:45:21;127.87;;;116.80;;
35376;SDS011;21480;51.642;4.834;2022-10-13T11:55:59;130.97;;;119.87;;
35376;SDS011;21480;51.642;4.834;2022-10-13T11:58:28;129.93;;;119.53;;
35376;SDS011;21480;51.642;4.834;2022-10-13T12:03:25;130.13;;;118.97;;
35376;SDS011;21480;51.642;4.834;2022-10-13T12:05:52;126.60;;;116.10;;
35376;SDS011;21480;51.642;4.834;2022-10-13T12:08:19;129.57;;;118.60;;
35376;SDS011;21480;51.642;4.834;2022-10-13T12:10:46;128.70;;;117.83;;
35376;SDS011;21480;51.642;4.834;2022-10-13T12:13:21;127.27;;;116.93;;
35376;SDS011;21480;51.642;4.834;2022-10-13T12:15:54;127.73;;;117.00;;
35376;SDS011;21480;51.642;4.834;2022-10-13T12:18:31;126.97;;;116.50;;
35376;SDS011;21480;51.642;4.834;2022-10-13T12:21:08;127.97;;;116.83;;
35376;SDS011;21480;51.642;4.834;2022-10-13T12:23:34;125.83;;;115.70;;
35376;SDS011;21480;51.642;4.834;2022-10-13T12:26:00;128.77;;;117.93;;
35376;SDS011;21480;51.642;4.834;2022-10-13T12:28:29;128.07;;;117.27;;
35376;SDS011;21480;51.642;4.834;2022-10-13T12:31:19;125.13;;;114.93;;
35376;SDS011;21480;51.642;4.834;2022-10-13T12:33:57;126.07;;;116.03;;
35376;SDS011;21480;51.642;4.834;2022-10-13T12:36:28;125.37;;;115.33;;
35376;SDS011;21480;51.642;4.834;2022-10-13T12:39:02;126.20;;;116.03;;
35376;SDS011;21480;51.642;4.834;2022-10-13T12:41:39;127.70;;;117.20;;
35376;SDS011;21480;51.642;4.834;2022-10-13T12:44:11;128.37;;;117.97;;
35376;SDS011;21480;51.642;4.834;2022-10-13T12:46:43;128.13;;;117.63;;
35376;SDS011;21480;51.642;4.834;2022-10-13T12:49:14;126.43;;;116.03;;
35376;SDS011;21480;51.642;4.834;2022-10-13T12:51:50;126.77;;;116.80;;
35376;SDS011;21480;51.642;4.834;2022-10-13T12:54:24;127.77;;;117.50;;
35376;SDS011;21480;51.642;4.834;2022-10-13T12:56:55;127.80;;;117.27;;
35376;SDS011;21480;51.642;4.834;2022-10-13T12:59:23;127.23;;;116.37;;
35376;SDS011;21480;51.642;4.834;2022-10-13T13:01:51;128.37;;;117.53;;
35376;SDS011;21480;51.642;4.834;2022-10-13T13:04:28;127.27;;;116.60;;
35376;SDS011;21480;51.642;4.834;2022-10-13T13:07:01;127.67;;;116.90;;
35376;SDS011;21480;51.642;4.834;2022-10-13T13:09:32;129.63;;;118.80;;
35376;SDS011;21480;51.642;4.834;2022-10-13T13:14:39;130.17;;;119.40;;
35376;SDS011;21480;51.642;4.834;2022-10-13T13:17:14;128.67;;;117.97;;
35376;SDS011;21480;51.642;4.834;2022-10-13T13:19:46;129.37;;;118.43;;
35376;SDS011;21480;51.642;4.834;2022-10-13T13:22:16;129.77;;;118.77;;
35376;SDS011;21480;51.642;4.834;2022-10-13T13:24:42;128.27;;;117.67;;
35376;SDS011;21480;51.642;4.834;2022-10-13T13:27:15;128.57;;;117.43;;
35376;SDS011;21480;51.642;4.834;2022-10-13T13:29:43;130.27;;;118.93;;
35376;SDS011;21480;51.642;4.834;2022-10-13T13:32:13;128.50;;;117.47;;
35376;SDS011;21480;51.642;4.834;2022-10-13T13:34:41;128.37;;;117.87;;
35376;SDS011;21480;51.642;4.834;2022-10-13T13:37:29;130.97;;;119.83;;
35376;SDS011;21480;51.642;4.834;2022-10-13T13:40:02;128.20;;;117.87;;
35376;SDS011;21480;51.642;4.834;2022-10-13T13:42:28;127.97;;;117.47;;
35376;SDS011;21480;51.642;4.834;2022-10-13T13:44:55;131.00;;;120.00;;
35376;SDS011;21480;51.642;4.834;2022-10-13T13:47:22;131.80;;;120.87;;
35376;SDS011;21480;51.642;4.834;2022-10-13T13:49:50;130.20;;;119.63;;
35376;SDS011;21480;51.642;4.834;2022-10-13T13:52:17;131.47;;;120.40;;
35376;SDS011;21480;51.642;4.834;2022-10-13T13:54:45;129.90;;;119.40;;
35376;SDS011;21480;51.642;4.834;2022-10-13T13:57:12;132.23;;;120.70;;
35376;SDS011;21480;51.642;4.834;2022-10-13T13:59:39;133.20;;;122.07;;
35376;SDS011;21480;51.642;4.834;2022-10-13T14:02:06;130.00;;;119.03;;
35376;SDS011;21480;51.642;4.834;2022-10-13T14:04:37;131.70;;;120.53;;
35376;SDS011;21480;51.642;4.834;2022-10-13T14:07:03;131.37;;;120.37;;
35376;SDS011;21480;51.642;4.834;2022-10-13T14:09:29;134.13;;;122.90;;
35376;SDS011;21480;51.642;4.834;2022-10-13T14:11:56;133.50;;;122.17;;
35376;SDS011;21480;51.642;4.834;2022-10-13T14:14:23;133.33;;;122.13;;
35376;SDS011;21480;51.642;4.834;2022-10-13T14:16:49;132.33;;;121.30;;
35376;SDS011;21480;51.642;4.834;2022-10-13T14:19:14;135.93;;;124.03;;
35376;SDS011;21480;51.642;4.834;2022-10-13T14:21:41;136.00;;;124.73;;
35376;SDS011;21480;51.642;4.834;2022-10-13T14:24:06;134.70;;;122.87;;
35376;SDS011;21480;51.642;4.834;2022-10-13T14:26:33;135.80;;;124.27;;
35376;SDS011;21480;51.642;4.834;2022-10-13T14:28:59;138.90;;;126.87;;
35376;SDS011;21480;51.642;4.834;2022-10-13T14:31:25;136.07;;;124.37;;
35376;SDS011;21480;51.642;4.834;2022-10-13T14:33:51;137.10;;;125.83;;
35376;SDS011;21480;51.642;4.834;2022-10-13T14:36:17;138.83;;;126.97;;
35376;SDS011;21480;51.642;4.834;2022-10-13T14:38:43;138.80;;;126.60;;
35376;SDS011;21480;51.642;4.834;2022-10-13T14:41:09;137.63;;;125.60;;
35376;SDS011;21480;51.642;4.834;2022-10-13T14:43:34;140.13;;;128.10;;
35376;SDS011;21480;51.642;4.834;2022-10-13T14:46:04;141.40;;;129.33;;
35376;SDS011;21480;51.642;4.834;2022-10-13T14:48:34;142.97;;;130.50;;
35376;SDS011;21480;51.642;4.834;2022-10-13T14:51:08;143.50;;;130.87;;
35376;SDS011;21480;51.642;4.834;2022-10-13T14:53:35;142.50;;;130.33;;
35376;SDS011;21480;51.642;4.834;2022-10-13T14:56:03;142.40;;;129.73;;
35376;SDS011;21480;51.642;4.834;2022-10-13T14:58:40;143.70;;;131.30;;
35376;SDS011;21480;51.642;4.834;2022-10-13T15:01:05;143.57;;;130.87;;
35376;SDS011;21480;51.642;4.834;2022-10-13T15:03:31;144.83;;;132.23;;
35376;SDS011;21480;51.642;4.834;2022-10-13T15:05:57;143.00;;;130.57;;
35376;SDS011;21480;51.642;4.834;2022-10-13T15:08:23;140.87;;;129.07;;
35376;SDS011;21480;51.642;4.834;2022-10-13T15:10:56;140.20;;;128.37;;
35376;SDS011;21480;51.642;4.834;2022-10-13T15:13:23;141.67;;;129.33;;
35376;SDS011;21480;51.642;4.834;2022-10-13T15:15:49;139.70;;;127.43;;
35376;SDS011;21480;51.642;4.834;2022-10-13T15:18:15;140.07;;;128.03;;
35376;SDS011;21480;51.642;4.834;2022-10-13T15:20:47;138.50;;;127.10;;
35376;SDS011;21480;51.642;4.834;2022-10-13T15:23:14;136.63;;;125.10;;
35376;SDS011;21480;51.642;4.834;2022-10-13T15:25:47;138.53;;;127.13;;
35376;SDS011;21480;51.642;4.834;2022-10-13T15:28:24;137.53;;;125.57;;
35376;SDS011;21480;51.642;4.834;2022-10-13T15:30:51;136.97;;;124.93;;
35376;SDS011;21480;51.642;4.834;2022-10-13T15:33:17;136.13;;;124.30;;
35376;SDS011;21480;51.642;4.834;2022-10-13T15:35:46;137.77;;;125.97;;
35376;SDS011;21480;51.642;4.834;2022-10-13T15:38:13;135.20;;;123.70;;
35376;SDS011;21480;51.642;4.834;2022-10-13T15:40:39;137.00;;;125.20;;
35376;SDS011;21480;51.642;4.834;2022-10-13T15:43:06;133.77;;;122.43;;
35376;SDS011;21480;51.642;4.834;2022-10-13T15:45:32;132.97;;;121.87;;